Time;durP1;ratioP1;P1;durP2;ratioP2;P2;SDS_P1;SDS_P2;PMS_P1;PMS_P2;Temp;Humidity;BMP_temperature;BMP_pressure;BME280_temperature;BME280_humidity;BME280_pressure;Samples;Min_cycle;Max_cycle;Signal;HPM_P1;HPM_P2
2022/06/11 00:01:23;;;;;;;2.97;2.30;;;9.80;99.90;;;;;;4178701;28;20203;-71
2022/06/11 00:03:23;;;;;;;3.77;2.30;;;9.80;99.90;;;;;;4179318;28;20257;-70
2022/06/11 00:05:24;;;;;;;3.30;2.33;;;9.80;99.90;;;;;;4178233;28;20206;-70
2022/06/11 00:07:25;;;;;;;2.57;2.27;;;9.80;99.90;;;;;;4179661;28;20711;-70
2022/06/11 00:09:27;;;;;;;2.87;2.57;;;9.70;99.90;;;;;;4179151;28;20276;-70
2022/06/11 00:11:28;;;;;;;3.30;2.30;;;9.60;99.90;;;;;;4178990;28;20187;-71
2022/06/11 00:13:28;;;;;;;3.37;2.20;;;9.60;99.90;;;;;;4179152;28;20223;-70
2022/06/11 00:15:30;;;;;;;2.93;2.33;;;9.60;99.90;;;;;;4178221;28;20289;-70
2022/06/11 00:17:31;;;;;;;2.93;2.10;;;9.60;99.90;;;;;;4176760;28;20210;-71
2022/06/11 00:19:32;;;;;;;2.40;2.20;;;9.60;99.90;;;;;;4163081;28;20192;-70
2022/06/11 00:21:37;;;;;;;2.67;2.00;;;9.60;99.90;;;;;;4162462;28;20432;-70
2022/06/11 00:23:39;;;;;;;2.33;2.13;;;9.60;99.90;;;;;;4162594;28;20197;-72
2022/06/11 00:25:40;;;;;;;3.20;2.67;;;9.60;99.90;;;;;;4161601;28;20441;-70
2022/06/11 00:27:41;;;;;;;3.37;2.13;;;9.60;99.90;;;;;;4162202;28;20235;-70
2022/06/11 00:29:42;;;;;;;3.70;2.10;;;9.50;99.90;;;;;;4162099;28;20181;-70
2022/06/11 00:31:43;;;;;;;2.37;2.10;;;9.50;99.90;;;;;;4162224;28;20177;-71
2022/06/11 00:33:44;;;;;;;4.03;2.20;;;9.50;99.90;;;;;;4162440;28;20265;-71
2022/06/11 00:35:45;;;;;;;2.33;2.13;;;9.40;99.90;;;;;;4162030;28;20590;-70
2022/06/11 00:37:45;;;;;;;3.70;1.93;;;9.40;99.90;;;;;;4162247;28;20244;-70
2022/06/11 00:39:47;;;;;;;4.47;2.43;;;9.40;99.90;;;;;;4162577;28;20668;-71
2022/06/11 00:41:52;;;;;;;3.77;2.60;;;9.40;99.90;;;;;;4162464;28;20664;-70
2022/06/11 00:43:54;;;;;;;2.50;2.30;;;9.30;99.90;;;;;;4162432;28;20179;-70
2022/06/11 00:46:32;;;;;;;6.17;2.30;;;9.30;99.90;;;;;;4162051;28;20258;-71
2022/06/11 00:48:37;;;;;;;2.17;2.00;;;9.30;99.90;;;;;;4162335;28;20412;-71
2022/06/11 00:50:47;;;;;;;2.63;2.13;;;9.30;99.90;;;;;;4162707;28;20479;-71
2022/06/11 00:52:49;;;;;;;2.80;2.17;;;9.30;99.90;;;;;;4162343;28;20209;-71
2022/06/11 00:55:13;;;;;;;2.97;2.00;;;9.30;99.90;;;;;;4165291;28;20486;-71
2022/06/11 00:57:14;;;;;;;3.97;2.10;;;9.30;99.90;;;;;;4163612;28;20417;-70
2022/06/11 00:59:19;;;;;;;3.53;2.20;;;9.30;99.90;;;;;;4165628;28;20423;-71
2022/06/11 01:01:23;;;;;;;2.80;2.30;;;9.30;99.90;;;;;;4165155;28;20433;-71
2022/06/11 01:03:31;;;;;;;4.60;2.20;;;9.40;99.90;;;;;;4165045;28;20518;-71
2022/06/11 01:05:36;;;;;;;2.93;2.53;;;9.30;99.90;;;;;;4164419;28;20436;-71
2022/06/11 01:07:36;;;;;;;3.37;2.33;;;9.20;99.90;;;;;;4165186;28;20176;-71
2022/06/11 01:09:44;;;;;;;4.97;2.47;;;9.20;99.90;;;;;;4165144;28;20272;-72
2022/06/11 01:12:23;;;;;;;2.40;2.20;;;9.20;99.90;;;;;;4165000;28;20177;-71
2022/06/11 01:14:37;;;;;;;3.90;2.13;;;9.20;99.90;;;;;;4164706;28;20432;-71
2022/06/11 01:17:14;;;;;;;4.30;1.97;;;9.10;99.90;;;;;;4164340;28;20185;-71
2022/06/11 01:19:26;;;;;;;3.20;2.07;;;9.10;99.90;;;;;;4164986;28;20453;-71
2022/06/11 01:22:09;;;;;;;2.80;2.27;;;9.10;99.90;;;;;;4164633;28;20196;-71
2022/06/11 01:24:40;;;;;;;3.40;2.40;;;9.10;99.90;;;;;;4163556;28;20446;-72
2022/06/11 01:27:16;;;;;;;4.03;2.10;;;9.10;99.90;;;;;;4164645;28;20422;-71
2022/06/11 01:29:36;;;;;;;2.53;2.10;;;9.00;99.90;;;;;;4165012;28;20432;-72
2022/06/11 01:31:54;;;;;;;4.73;2.37;;;9.00;99.90;;;;;;4166133;28;20936;-72
2022/06/11 01:34:03;;;;;;;4.50;2.20;;;8.90;99.90;;;;;;4180595;28;20663;-72
2022/06/11 01:36:26;;;;;;;4.47;2.40;;;9.00;99.90;;;;;;4180837;28;20492;-73
2022/06/11 01:38:32;;;;;;;2.97;2.40;;;9.00;99.90;;;;;;4181198;28;20468;-72
2022/06/11 01:40:44;;;;;;;3.87;2.60;;;8.90;99.90;;;;;;4180076;28;20485;-72
2022/06/11 01:42:52;;;;;;;3.03;1.80;;;8.90;99.90;;;;;;4180943;28;20665;-72
2022/06/11 01:45:27;;;;;;;3.77;1.93;;;8.90;99.90;;;;;;4181033;28;20438;-73
2022/06/11 01:47:27;;;;;;;4.47;2.23;;;8.90;99.90;;;;;;4173326;28;20434;-71
2022/06/11 01:49:28;;;;;;;4.60;2.40;;;8.90;99.90;;;;;;4181070;28;21022;-71
2022/06/11 01:51:34;;;;;;;3.40;2.30;;;8.90;99.90;;;;;;4180702;28;20236;-71
2022/06/11 01:53:46;;;;;;;6.60;2.73;;;8.80;99.90;;;;;;4180748;28;20174;-72
2022/06/11 01:56:07;;;;;;;2.40;2.20;;;8.90;99.90;;;;;;4178935;28;20429;-71
2022/06/11 01:58:12;;;;;;;3.20;2.00;;;8.90;99.90;;;;;;4180550;28;20458;-71
2022/06/11 02:00:26;;;;;;;2.50;2.30;;;8.90;99.90;;;;;;4179280;28;20419;-72
2022/06/11 02:03:04;;;;;;;4.23;2.00;;;8.90;99.90;;;;;;4180551;28;20945;-71
2022/06/11 02:05:10;;;;;;;2.20;2.00;;;8.90;99.90;;;;;;4178551;28;20427;-73
2022/06/11 02:07:38;;;;;;;2.57;2.37;;;8.80;99.90;;;;;;4180825;28;20206;-72
2022/06/11 02:09:43;;;;;;;3.60;2.53;;;8.80;99.90;;;;;;4175492;28;20440;-73
2022/06/11 02:12:00;;;;;;;3.90;2.17;;;8.70;99.90;;;;;;4181005;28;20509;-72
2022/06/11 02:14:17;;;;;;;4.60;2.43;;;8.80;99.90;;;;;;4180464;28;20407;-72
2022/06/11 02:16:23;;;;;;;3.93;2.50;;;8.80;99.90;;;;;;4180055;28;20399;-72
2022/06/11 02:18:25;;;;;;;6.80;2.77;;;8.80;99.90;;;;;;4175334;28;20660;-72
2022/06/11 02:20:30;;;;;;;3.47;2.27;;;8.80;99.90;;;;;;4180168;28;20879;-72
2022/06/11 02:22:39;;;;;;;3.07;2.27;;;8.70;99.90;;;;;;4180468;28;20784;-72
2022/06/11 02:24:49;;;;;;;2.67;2.10;;;8.70;99.90;;;;;;4177194;28;20479;-73
2022/06/11 02:26:54;;;;;;;2.70;2.27;;;8.70;99.90;;;;;;4179882;28;20415;-73
2022/06/11 02:28:57;;;;;;;4.70;2.50;;;8.60;99.90;;;;;;4180466;28;20807;-73
2022/06/11 02:31:02;;;;;;;4.27;2.63;;;8.60;99.90;;;;;;4179886;28;20476;-73
2022/06/11 02:33:03;;;;;;;3.73;2.00;;;8.60;99.90;;;;;;4180147;28;20419;-73
2022/06/11 02:35:09;;;;;;;3.47;2.23;;;8.60;99.90;;;;;;4179875;28;20434;-73
2022/06/11 02:37:28;;;;;;;3.07;1.90;;;8.60;99.90;;;;;;4177149;28;20759;-72
2022/06/11 02:39:33;;;;;;;5.00;2.00;;;8.60;99.90;;;;;;4180211;28;20464;-73
2022/06/11 02:41:34;;;;;;;2.97;2.00;;;8.60;99.90;;;;;;4178801;28;20400;-73
2022/06/11 02:43:35;;;;;;;2.10;1.73;;;8.50;99.90;;;;;;4180290;28;20489;-72
2022/06/11 02:45:35;;;;;;;3.30;2.17;;;8.60;99.90;;;;;;4179333;28;20207;-73
2022/06/11 02:47:37;;;;;;;4.73;1.97;;;8.60;99.90;;;;;;4179966;28;20239;-73
2022/06/11 02:49:37;;;;;;;2.40;2.20;;;8.60;99.90;;;;;;4180081;28;20178;-72
2022/06/11 02:51:38;;;;;;;3.73;2.13;;;8.60;99.90;;;;;;4180127;28;20411;-73
2022/06/11 02:53:39;;;;;;;4.37;2.27;;;8.50;99.90;;;;;;4180319;28;20188;-73
2022/06/11 02:55:40;;;;;;;4.90;2.43;;;8.50;99.90;;;;;;4179616;28;20197;-73
2022/06/11 02:57:41;;;;;;;2.70;2.17;;;8.50;99.90;;;;;;4179889;28;20208;-72
2022/06/11 02:59:44;;;;;;;3.17;2.30;;;8.40;99.90;;;;;;4179589;28;20407;-73
2022/06/11 03:01:45;;;;;;;3.13;2.30;;;8.50;99.90;;;;;;4179566;28;20177;-73
2022/06/11 03:03:46;;;;;;;2.90;2.20;;;8.50;99.90;;;;;;4179578;28;21002;-73
2022/06/11 03:05:46;;;;;;;3.40;2.20;;;8.50;99.90;;;;;;4179022;28;20176;-72
2022/06/11 03:07:48;;;;;;;2.37;2.00;;;8.50;99.90;;;;;;4179417;28;20426;-73
2022/06/11 03:09:49;;;;;;;2.27;1.90;;;8.50;99.90;;;;;;4179817;28;20187;-73
2022/06/11 03:11:50;;;;;;;3.57;2.40;;;8.50;99.90;;;;;;4179862;28;20411;-73
2022/06/11 03:13:51;;;;;;;2.80;2.50;;;8.50;99.90;;;;;;4179386;28;20191;-72
2022/06/11 03:15:52;;;;;;;2.53;2.17;;;8.50;99.90;;;;;;4178475;28;20939;-73
2022/06/11 03:17:53;;;;;;;4.50;2.40;;;8.50;99.90;;;;;;4179560;28;20204;-74
2022/06/11 03:19:54;;;;;;;3.17;2.10;;;8.50;99.90;;;;;;4179338;28;21172;-73
2022/06/11 03:21:56;;;;;;;2.50;2.10;;;8.50;99.90;;;;;;4179416;28;20418;-73
2022/06/11 03:23:56;;;;;;;3.10;2.20;;;8.50;99.90;;;;;;4178975;28;20818;-73
2022/06/11 03:25:57;;;;;;;2.67;2.20;;;8.50;99.90;;;;;;4178716;28;20519;-72
2022/06/11 03:27:58;;;;;;;2.47;2.27;;;8.50;99.90;;;;;;4179446;28;20176;-73
2022/06/11 03:29:58;;;;;;;5.00;2.87;;;8.50;99.90;;;;;;4179451;28;20929;-73
2022/06/11 03:31:59;;;;;;;3.13;2.40;;;8.40;99.90;;;;;;4181094;28;20547;-73
2022/06/11 03:34:00;;;;;;;4.17;2.40;;;8.50;99.90;;;;;;4179388;28;20594;-73
2022/06/11 03:36:05;;;;;;;2.83;2.30;;;8.60;99.90;;;;;;4179332;28;20182;-73
2022/06/11 03:38:07;;;;;;;4.37;2.50;;;8.60;99.90;;;;;;4179758;28;20202;-72
2022/06/11 03:40:09;;;;;;;2.63;2.17;;;8.60;99.90;;;;;;4179634;28;20415;-73
2022/06/11 03:42:09;;;;;;;3.57;2.20;;;8.60;99.90;;;;;;4179782;28;20838;-72
2022/06/11 03:44:11;;;;;;;2.47;2.07;;;8.60;99.90;;;;;;4179729;28;20483;-72
2022/06/11 03:46:12;;;;;;;3.73;2.13;;;8.60;99.90;;;;;;4179286;28;20193;-73
2022/06/11 03:48:13;;;;;;;3.17;2.20;;;8.60;99.90;;;;;;4178733;28;21178;-72
2022/06/11 03:50:20;;;;;;;3.63;2.20;;;8.60;99.90;;;;;;4180120;28;20216;-72
2022/06/11 03:52:22;;;;;;;5.30;2.27;;;8.60;99.90;;;;;;4180136;28;20274;-73
2022/06/11 03:54:23;;;;;;;5.17;2.70;;;8.60;99.90;;;;;;4180064;28;20434;-73
2022/06/11 03:56:25;;;;;;;3.70;2.40;;;8.60;99.90;;;;;;4179165;28;20418;-74
2022/06/11 03:58:26;;;;;;;3.53;2.07;;;8.60;99.90;;;;;;4179153;28;20208;-72
2022/06/11 04:02:49;;;;;;;2.40;2.20;;;8.60;99.90;;;;;;4179654;28;20410;-74
2022/06/11 04:04:50;;;;;;;2.50;2.23;;;8.70;99.90;;;;;;4179102;28;20426;-73
2022/06/11 04:06:57;;;;;;;4.40;2.30;;;8.70;99.90;;;;;;4179048;28;20184;-74
2022/06/11 04:08:58;;;;;;;2.50;2.30;;;8.80;99.90;;;;;;4179102;28;20175;-73
2022/06/11 04:11:00;;;;;;;3.03;2.47;;;8.80;99.90;;;;;;4179099;28;20555;-73
2022/06/11 04:13:00;;;;;;;2.23;1.80;;;8.80;99.90;;;;;;4178765;28;20910;-72
2022/06/11 04:15:01;;;;;;;2.70;2.23;;;8.80;99.90;;;;;;4178602;28;20443;-73
2022/06/11 04:17:12;;;;;;;3.43;2.30;;;8.80;99.90;;;;;;4178676;28;20209;-74
2022/06/11 04:19:19;;;;;;;2.10;1.83;;;8.80;99.90;;;;;;4172674;28;20202;-73
2022/06/11 04:21:21;;;;;;;3.47;2.10;;;8.90;99.90;;;;;;4162374;28;20515;-73
2022/06/11 04:23:24;;;;;;;2.30;1.97;;;8.90;99.90;;;;;;4162410;28;20420;-74
2022/06/11 04:25:24;;;;;;;2.27;2.00;;;9.00;99.90;;;;;;4161849;28;20439;-73
2022/06/11 04:27:25;;;;;;;2.97;2.03;;;9.00;99.90;;;;;;4163866;28;20785;-73
2022/06/11 04:29:30;;;;;;;2.60;2.20;;;9.00;99.90;;;;;;4166374;28;20194;-72
2022/06/11 04:31:31;;;;;;;2.20;2.00;;;9.00;99.90;;;;;;4180331;28;20791;-72
2022/06/11 04:33:33;;;;;;;2.43;1.97;;;9.00;99.90;;;;;;4181989;28;20422;-73
2022/06/11 04:35:34;;;;;;;3.60;2.17;;;9.10;99.90;;;;;;4181828;28;20423;-73
2022/06/11 04:37:34;;;;;;;2.47;2.00;;;9.10;99.90;;;;;;4182217;28;20962;-73
2022/06/11 04:39:35;;;;;;;2.33;1.60;;;9.20;99.90;;;;;;4182168;28;20304;-73
2022/06/11 04:41:36;;;;;;;7.07;2.03;;;9.20;99.90;;;;;;4182212;28;20169;-72
2022/06/11 04:43:36;;;;;;;3.87;1.90;;;9.30;99.90;;;;;;4182424;28;20271;-73
2022/06/11 04:45:37;;;;;;;2.07;1.87;;;9.40;99.90;;;;;;4181235;28;20196;-71
2022/06/11 04:47:39;;;;;;;3.70;2.20;;;9.40;99.90;;;;;;4182171;28;20182;-72
2022/06/11 04:49:40;;;;;;;2.10;1.90;;;9.50;99.90;;;;;;4182168;28;20434;-74
2022/06/11 04:51:41;;;;;;;3.07;1.90;;;9.50;99.90;;;;;;4181980;28;20434;-73
2022/06/11 04:53:44;;;;;;;4.80;2.00;;;9.60;99.90;;;;;;4181200;28;20651;-72
2022/06/11 04:55:45;;;;;;;3.80;2.00;;;9.70;99.90;;;;;;4180272;28;20200;-72
2022/06/11 04:57:47;;;;;;;3.40;1.90;;;9.70;99.90;;;;;;4180796;28;20297;-72
2022/06/11 04:59:48;;;;;;;2.70;1.90;;;9.70;99.90;;;;;;4180955;28;20183;-73
2022/06/11 05:01:49;;;;;;;2.17;1.83;;;9.80;99.90;;;;;;4180751;28;20416;-73
2022/06/11 05:03:50;;;;;;;2.57;1.90;;;9.80;99.90;;;;;;4180738;28;20185;-72
2022/06/11 05:05:50;;;;;;;3.17;1.90;;;9.90;99.90;;;;;;4180195;28;20188;-72
2022/06/11 05:07:52;;;;;;;2.67;1.70;;;9.90;99.90;;;;;;4180882;28;20190;-73
2022/06/11 05:09:53;;;;;;;2.53;1.63;;;10.00;99.90;;;;;;4180653;28;20194;-73
2022/06/11 05:11:53;;;;;;;2.10;1.63;;;10.10;99.90;;;;;;4180562;28;20551;-72
2022/06/11 05:13:54;;;;;;;2.63;2.00;;;10.20;99.90;;;;;;4180676;28;20189;-73
2022/06/11 05:15:57;;;;;;;2.77;1.80;;;10.30;99.90;;;;;;4180045;28;20183;-73
2022/06/11 05:17:58;;;;;;;3.37;2.00;;;10.40;99.90;;;;;;4180198;28;20204;-72
2022/06/11 05:19:58;;;;;;;2.50;2.03;;;10.50;99.90;;;;;;4180612;28;20175;-73
2022/06/11 05:21:59;;;;;;;2.90;1.90;;;10.50;99.90;;;;;;4180822;28;20270;-73
2022/06/11 05:24:00;;;;;;;3.17;1.87;;;10.60;99.80;;;;;;4180646;28;20695;-73
2022/06/11 05:26:01;;;;;;;2.10;1.63;;;10.70;99.60;;;;;;4179590;28;20429;-72
2022/06/11 05:28:02;;;;;;;2.80;1.87;;;10.70;99.20;;;;;;4180398;28;20266;-73
2022/06/11 05:30:08;;;;;;;2.43;1.60;;;10.70;99.30;;;;;;4180502;28;20195;-72
2022/06/11 05:32:08;;;;;;;2.67;2.00;;;10.80;99.20;;;;;;4180413;28;20179;-72
2022/06/11 05:34:09;;;;;;;2.33;2.00;;;10.90;99.10;;;;;;4178912;28;20258;-73
2022/06/11 05:36:12;;;;;;;3.10;1.93;;;10.90;99.10;;;;;;4179810;28;20550;-73
2022/06/11 05:38:17;;;;;;;3.57;1.80;;;11.00;99.10;;;;;;4180402;28;20262;-72
2022/06/11 05:40:21;;;;;;;3.70;1.70;;;11.10;98.90;;;;;;4179946;28;20271;-73
2022/06/11 05:42:24;;;;;;;2.63;2.10;;;11.10;98.70;;;;;;4180493;28;20268;-72
2022/06/11 05:44:25;;;;;;;5.13;2.53;;;11.20;98.40;;;;;;4180235;28;20200;-73
2022/06/11 05:46:26;;;;;;;4.40;2.00;;;11.30;98.60;;;;;;4179821;28;20337;-72
2022/06/11 05:48:32;;;;;;;2.00;1.80;;;11.30;98.70;;;;;;4180285;28;20183;-73
2022/06/11 05:50:37;;;;;;;2.97;1.60;;;11.40;98.90;;;;;;4180228;28;20176;-73
2022/06/11 05:52:43;;;;;;;4.07;1.87;;;11.50;98.70;;;;;;4180348;28;20300;-73
2022/06/11 05:54:45;;;;;;;6.53;2.20;;;11.50;98.90;;;;;;4180161;28;20227;-72
2022/06/11 05:56:47;;;;;;;4.90;2.17;;;11.70;99.10;;;;;;4179400;28;20619;-73
2022/06/11 05:58:52;;;;;;;3.27;2.10;;;11.80;98.50;;;;;;4178506;28;20299;-73
2022/06/11 06:00:53;;;;;;;2.47;2.00;;;12.00;98.10;;;;;;4179810;28;20238;-73
2022/06/11 06:02:54;;;;;;;2.70;2.07;;;12.10;97.40;;;;;;4179903;28;20179;-73
2022/06/11 06:04:55;;;;;;;3.70;1.90;;;12.20;97.20;;;;;;4179816;28;20235;-73
2022/06/11 06:06:56;;;;;;;3.90;2.00;;;12.40;96.70;;;;;;4179447;28;20211;-73
2022/06/11 06:08:57;;;;;;;2.37;2.00;;;12.60;96.70;;;;;;4179905;28;20188;-73
2022/06/11 06:10:57;;;;;;;4.33;2.20;;;12.80;96.40;;;;;;4179657;28;20176;-70
2022/06/11 06:12:58;;;;;;;4.57;2.10;;;13.00;96.10;;;;;;4179873;28;20190;-72
2022/06/11 06:15:10;;;;;;;3.70;1.90;;;13.10;95.70;;;;;;4179640;28;20627;-74
2022/06/11 06:17:11;;;;;;;2.10;1.90;;;13.20;95.30;;;;;;4171535;28;20257;-73
2022/06/11 06:19:11;;;;;;;2.57;1.80;;;13.30;94.60;;;;;;4161865;28;20258;-74
2022/06/11 06:21:13;;;;;;;2.40;1.60;;;13.30;94.30;;;;;;4162943;28;20189;-73
2022/06/11 06:23:14;;;;;;;3.67;2.00;;;13.40;94.10;;;;;;4163179;28;20536;-73
2022/06/11 06:25:18;;;;;;;2.57;1.80;;;13.40;93.80;;;;;;4162723;28;20203;-73
2022/06/11 06:27:19;;;;;;;2.83;1.70;;;13.50;94.00;;;;;;4162137;28;20177;-72
2022/06/11 06:29:19;;;;;;;4.70;2.20;;;13.50;93.50;;;;;;4163053;28;20215;-73
2022/06/11 06:31:20;;;;;;;3.17;1.70;;;13.70;93.30;;;;;;4162872;28;20185;-73
2022/06/11 06:33:20;;;;;;;2.30;1.70;;;13.80;93.30;;;;;;4162943;28;20173;-73
2022/06/11 06:35:21;;;;;;;3.67;1.73;;;13.90;93.10;;;;;;4162249;28;20212;-72
2022/06/11 06:37:22;;;;;;;4.47;1.80;;;14.00;92.70;;;;;;4162820;28;20181;-73
2022/06/11 06:39:23;;;;;;;3.83;2.03;;;14.20;92.50;;;;;;4162886;28;20552;-73
2022/06/11 06:41:24;;;;;;;2.33;1.93;;;14.20;92.10;;;;;;4162772;28;20179;-73
2022/06/11 06:43:24;;;;;;;1.77;1.60;;;14.40;90.90;;;;;;4162852;28;20260;-73
2022/06/11 06:45:25;;;;;;;2.60;2.07;;;14.60;90.50;;;;;;4162194;28;20196;-74
2022/06/11 06:47:26;;;;;;;4.20;1.77;;;14.60;90.40;;;;;;4162655;28;20169;-74
2022/06/11 06:49:26;;;;;;;4.23;1.80;;;14.70;90.50;;;;;;4162841;28;20312;-73
2022/06/11 06:51:27;;;;;;;2.53;1.97;;;14.80;90.20;;;;;;4160451;28;20277;-72
2022/06/11 06:53:28;;;;;;;3.97;1.83;;;15.00;88.80;;;;;;4166379;28;20180;-72
2022/06/11 06:55:29;;;;;;;1.97;1.73;;;15.10;88.10;;;;;;4172512;28;20193;-73
2022/06/11 06:57:30;;;;;;;4.40;2.47;;;15.30;86.80;;;;;;4178931;28;20229;-73
2022/06/11 06:59:30;;;;;;;3.60;2.10;;;15.30;86.60;;;;;;4177607;28;20180;-72
2022/06/11 07:01:32;;;;;;;2.77;1.83;;;15.50;84.30;;;;;;4178960;28;20263;-73
2022/06/11 07:03:32;;;;;;;4.57;1.80;;;15.80;81.80;;;;;;4178805;28;20184;-72
2022/06/11 07:05:33;;;;;;;4.80;2.00;;;15.90;79.30;;;;;;4178244;28;20763;-73
2022/06/11 07:07:35;;;;;;;3.43;1.60;;;16.20;73.40;;;;;;4178946;28;20184;-73
2022/06/11 07:09:35;;;;;;;5.03;2.10;;;16.40;73.60;;;;;;4179106;28;20608;-73
2022/06/11 07:11:36;;;;;;;3.73;1.80;;;16.50;73.60;;;;;;4178841;28;20314;-73
2022/06/11 07:13:37;;;;;;;3.23;1.80;;;16.60;72.80;;;;;;4178841;28;20184;-72
2022/06/11 07:15:38;;;;;;;3.90;1.90;;;16.90;70.60;;;;;;4178118;28;20271;-72
2022/06/11 07:17:45;;;;;;;4.87;1.80;;;17.10;67.50;;;;;;4178727;28;20191;-73
2022/06/11 07:19:58;;;;;;;6.27;2.03;;;17.10;72.10;;;;;;4178959;28;20171;-73
2022/06/11 07:22:06;;;;;;;2.83;1.70;;;17.30;72.10;;;;;;4178835;28;20318;-73
2022/06/11 07:24:14;;;;;;;3.33;1.70;;;17.40;70.60;;;;;;4179116;28;20207;-72
2022/06/11 07:26:20;;;;;;;3.63;1.97;;;17.70;66.20;;;;;;4178320;28;20219;-73
2022/06/11 07:28:38;;;;;;;4.33;1.87;;;18.00;62.70;;;;;;4178925;28;20187;-73
2022/06/11 07:30:41;;;;;;;6.27;2.17;;;18.20;64.90;;;;;;4178836;28;20678;-72
2022/06/11 07:32:44;;;;;;;2.30;1.70;;;18.20;62.90;;;;;;4178707;28;20282;-73
2022/06/11 07:34:45;;;;;;;6.83;1.90;;;18.50;59.10;;;;;;4178728;28;20197;-73
2022/06/11 07:36:46;;;;;;;6.60;2.00;;;18.80;55.80;;;;;;4178207;28;20203;-73
2022/06/11 07:38:46;;;;;;;5.47;1.60;;;18.90;55.00;;;;;;4178579;28;20303;-73
2022/06/11 07:40:48;;;;;;;2.27;1.67;;;19.00;54.50;;;;;;4177540;28;20638;-73
2022/06/11 07:42:48;;;;;;;2.67;1.67;;;19.10;54.50;;;;;;4178564;28;20548;-72
2022/06/11 07:44:49;;;;;;;3.27;1.53;;;19.20;54.10;;;;;;4178883;28;20204;-71
2022/06/11 07:46:49;;;;;;;2.47;1.60;;;19.30;53.60;;;;;;4178006;28;20263;-73
2022/06/11 07:48:50;;;;;;;3.13;1.60;;;19.30;55.10;;;;;;4178449;28;20233;-72
2022/06/11 07:50:52;;;;;;;3.67;1.67;;;19.20;53.30;;;;;;4178678;28;20903;-73
2022/06/11 07:52:54;;;;;;;5.47;1.73;;;19.40;53.00;;;;;;4178506;28;20291;-72
2022/06/11 07:54:54;;;;;;;4.47;1.87;;;19.60;51.60;;;;;;4178580;28;20208;-72
2022/06/11 07:56:55;;;;;;;3.83;1.70;;;19.70;51.90;;;;;;4177727;28;20271;-72
2022/06/11 07:58:55;;;;;;;3.00;2.00;;;19.60;58.50;;;;;;4176855;28;20211;-72
2022/06/11 08:00:57;;;;;;;4.77;1.80;;;19.70;57.90;;;;;;4178376;28;20184;-72
2022/06/11 08:02:58;;;;;;;2.33;1.73;;;19.80;51.80;;;;;;4180545;28;20699;-72
2022/06/11 08:04:58;;;;;;;2.67;1.70;;;19.60;51.40;;;;;;4180476;28;20588;-71
2022/06/11 08:06:59;;;;;;;5.50;1.80;;;19.60;51.30;;;;;;4181434;28;20183;-72
2022/06/11 08:09:01;;;;;;;4.37;1.67;;;19.80;51.80;;;;;;4168173;28;20582;-72
2022/06/11 08:11:03;;;;;;;4.87;1.93;;;19.90;51.50;;;;;;4165130;28;20185;-72
2022/06/11 08:13:05;;;;;;;2.47;1.87;;;20.00;52.30;;;;;;4163857;28;20339;-72
2022/06/11 08:15:06;;;;;;;6.73;1.80;;;20.30;52.60;;;;;;4163430;28;20208;-72
2022/06/11 08:17:07;;;;;;;3.73;1.80;;;20.30;51.30;;;;;;4164557;28;20194;-72
2022/06/11 08:19:07;;;;;;;2.37;1.50;;;20.20;51.20;;;;;;4165120;28;20212;-72
2022/06/11 08:21:08;;;;;;;4.60;2.27;;;20.10;50.10;;;;;;4164834;28;20224;-72
2022/06/11 08:23:09;;;;;;;2.80;1.80;;;20.20;49.10;;;;;;4165176;28;20271;-73
2022/06/11 08:25:10;;;;;;;2.73;1.63;;;20.20;48.90;;;;;;4163284;28;20209;-72
2022/06/11 08:27:11;;;;;;;3.50;2.43;;;20.00;50.50;;;;;;4164631;28;20178;-73
2022/06/11 08:29:11;;;;;;;3.70;1.80;;;20.00;48.70;;;;;;4165022;28;20212;-73
2022/06/11 08:31:12;;;;;;;4.03;1.70;;;20.00;51.20;;;;;;4170217;28;20188;-73
2022/06/11 08:33:13;;;;;;;6.40;2.23;;;20.30;50.80;;;;;;4171393;28;20199;-72
2022/06/11 08:35:15;;;;;;;6.07;1.87;;;20.60;48.80;;;;;;4169768;28;20197;-73
2022/06/11 08:37:17;;;;;;;10.90;2.03;;;20.40;49.60;;;;;;4164502;28;20188;-73
2022/06/11 08:39:17;;;;;;;4.60;1.80;;;20.30;48.50;;;;;;4164707;28;20243;-72
2022/06/11 08:41:21;;;;;;;3.53;1.70;;;20.40;49.00;;;;;;4165874;28;20181;-71
2022/06/11 08:43:22;;;;;;;4.17;1.80;;;20.50;48.50;;;;;;4165047;28;20185;-72
2022/06/11 08:45:41;;;;;;;3.53;1.70;;;20.80;48.60;;;;;;4164498;28;20199;-73
2022/06/11 08:47:47;;;;;;;4.80;2.10;;;21.10;48.50;;;;;;4164768;28;20185;-73
2022/06/11 08:49:54;;;;;;;3.17;1.77;;;21.50;46.70;;;;;;4163631;28;20181;-72
2022/06/11 08:52:22;;;;;;;3.40;2.13;;;21.60;46.20;;;;;;4163508;28;20180;-73
2022/06/11 08:54:28;;;;;;;4.77;1.77;;;21.40;48.40;;;;;;4162996;28;20209;-70
2022/06/11 08:56:39;;;;;;;4.10;1.80;;;21.40;47.20;;;;;;4163968;28;20307;-72
2022/06/11 08:59:25;;;;;;;4.27;2.47;;;21.70;45.60;;;;;;4164181;28;20567;-72
2022/06/11 09:01:35;;;;;;;4.33;2.10;;;21.90;44.20;;;;;;4151939;28;20205;-72
2022/06/11 09:03:45;;;;;;;2.10;1.60;;;21.60;46.40;;;;;;4164362;28;20181;-72
2022/06/11 09:06:06;;;;;;;3.87;1.70;;;22.00;45.00;;;;;;4163971;28;20240;-72
2022/06/11 09:08:35;;;;;;;2.70;1.70;;;22.10;44.70;;;;;;4164385;28;20173;-72
2022/06/11 09:10:52;;;;;;;3.10;1.83;;;22.30;44.00;;;;;;4162976;28;20535;-72
2022/06/11 09:13:27;;;;;;;2.70;1.70;;;22.40;43.80;;;;;;4164416;28;20181;-73
2022/06/11 09:15:42;;;;;;;1.57;1.47;;;22.30;42.20;;;;;;4163239;28;20621;-72
2022/06/11 09:17:51;;;;;;;2.80;2.23;;;22.30;44.70;;;;;;4164362;28;20184;-72
2022/06/11 09:20:09;;;;;;;2.40;1.60;;;22.20;44.50;;;;;;4163080;28;20184;-72
2022/06/11 09:22:43;;;;;;;3.47;1.80;;;22.20;45.90;;;;;;4165055;28;20185;-72
2022/06/11 09:24:49;;;;;;;6.73;1.70;;;22.50;45.70;;;;;;4175626;28;20231;-72
2022/06/11 09:27:06;;;;;;;2.03;1.60;;;22.50;42.60;;;;;;4180138;28;20188;-72
2022/06/11 09:29:28;;;;;;;2.17;1.63;;;22.70;43.60;;;;;;4180557;28;20187;-72
2022/06/11 09:32:07;;;;;;;3.43;1.50;;;22.70;43.50;;;;;;4180636;28;20859;-72
2022/06/11 09:34:10;;;;;;;3.40;1.67;;;22.90;41.10;;;;;;4162077;28;20251;-72
2022/06/11 09:36:20;;;;;;;2.80;1.50;;;22.90;41.30;;;;;;4179559;28;20200;-71
2022/06/11 09:38:28;;;;;;;4.60;1.60;;;23.10;41.90;;;;;;4180324;28;20214;-69
2022/06/11 09:40:40;;;;;;;2.70;1.60;;;23.50;41.70;;;;;;4180413;28;20804;-68
2022/06/11 09:42:56;;;;;;;2.63;1.80;;;23.00;41.10;;;;;;4180400;28;20549;-68
2022/06/11 09:45:02;;;;;;;3.67;1.70;;;22.30;42.60;;;;;;4180167;28;20284;-67
2022/06/11 09:47:27;;;;;;;1.87;1.67;;;22.90;45.50;;;;;;4180036;28;20179;-69
2022/06/11 09:49:47;;;;;;;2.53;1.70;;;23.00;41.60;;;;;;4180246;28;20180;-68
2022/06/11 09:52:05;;;;;;;3.23;1.67;;;23.60;40.70;;;;;;4175762;28;20180;-69
2022/06/11 09:54:08;;;;;;;3.57;1.80;;;23.80;40.00;;;;;;4193285;28;20377;-68
2022/06/11 09:56:14;;;;;;;3.30;1.70;;;23.60;39.60;;;;;;4182317;28;20192;-68
2022/06/11 09:58:43;;;;;;;3.73;1.60;;;22.80;41.30;;;;;;4193963;28;20635;-68
2022/06/11 10:00:48;;;;;;;2.23;2.03;;;22.40;42.40;;;;;;4168627;28;20193;-67
2022/06/11 10:05:56;;;;;;;4.57;1.77;;;22.70;42.20;;;;;;4187465;28;20206;-69
2022/06/11 10:08:17;;;;;;;6.20;1.80;;;23.50;41.10;;;;;;4184665;28;20177;-69
2022/06/11 10:10:28;;;;;;;3.63;1.90;;;23.70;39.90;;;;;;4194472;28;20667;-68
2022/06/11 10:12:46;;;;;;;4.10;1.97;;;23.80;39.40;;;;;;4179542;28;20671;-68
2022/06/11 10:14:54;;;;;;;1.90;1.70;;;24.00;39.30;;;;;;4167298;28;20737;-68
2022/06/11 10:17:17;;;;;;;1.83;1.57;;;23.50;39.50;;;;;;4191890;28;20202;-67
2022/06/11 10:19:41;;;;;;;3.87;1.83;;;23.50;40.10;;;;;;4184334;28;20210;-68
2022/06/11 10:21:51;;;;;;;3.20;1.70;;;23.50;40.30;;;;;;4185978;28;20262;-68
2022/06/11 10:24:05;;;;;;;3.67;1.67;;;23.70;39.50;;;;;;4190627;28;20202;-69
2022/06/11 10:26:06;;;;;;;4.03;2.10;;;23.90;39.20;;;;;;4181540;28;20564;-68
2022/06/11 10:28:34;;;;;;;1.97;1.70;;;24.30;39.30;;;;;;4192202;28;20191;-69
2022/06/11 10:30:57;;;;;;;3.97;2.07;;;25.00;37.20;;;;;;4173525;28;20253;-71
2022/06/11 10:33:00;;;;;;;2.10;1.70;;;26.00;35.70;;;;;;4186716;28;20188;-70
2022/06/11 10:35:12;;;;;;;3.47;1.50;;;26.00;34.80;;;;;;4193029;28;20254;-70
2022/06/11 10:37:25;;;;;;;2.57;1.60;;;26.40;38.00;;;;;;4179161;28;20237;-70
2022/06/11 10:39:34;;;;;;;5.00;2.10;;;26.40;33.50;;;;;;4187916;28;20208;-69
2022/06/11 10:42:09;;;;;;;3.43;1.70;;;26.00;35.50;;;;;;4187503;28;20200;-70
2022/06/11 10:44:35;;;;;;;5.83;1.90;;;25.90;34.80;;;;;;4190851;28;20270;-70
2022/06/11 10:46:38;;;;;;;5.07;2.20;;;26.90;33.90;;;;;;4163273;28;20181;-69
2022/06/11 10:48:40;;;;;;;2.60;1.63;;;27.20;32.70;;;;;;4194239;28;20180;-70
2022/06/11 10:50:40;;;;;;;2.83;1.73;;;27.70;33.60;;;;;;4180288;28;20275;-68
2022/06/11 10:53:07;;;;;;;2.53;1.80;;;29.10;29.10;;;;;;4193785;28;20184;-70
2022/06/11 10:55:37;;;;;;;2.60;1.67;;;29.60;28.00;;;;;;4183724;28;20207;-69
2022/06/11 10:57:39;;;;;;;2.88;1.70;;;29.10;30.10;;;;;;4184418;28;20617;-68
2022/06/11 10:59:49;;;;;;;1.88;1.70;;;29.30;29.30;;;;;;4188073;28;20898;-68
2022/06/11 11:02:03;;;;;;;2.95;1.80;;;29.20;29.80;;;;;;4183984;28;20811;-68
2022/06/11 11:04:22;;;;;;;2.60;2.00;;;29.00;30.00;;;;;;4191253;28;20218;-69
2022/06/11 11:06:29;;;;;;;2.03;1.70;;;28.50;29.90;;;;;;4178977;28;20809;-68